Time;durP1;ratioP1;P1;durP2;ratioP2;P2;SDS_P1;SDS_P2;PMS_P1;PMS_P2;Temp;Humidity;BMP_temperature;BMP_pressure;BME280_temperature;BME280_humidity;BME280_pressure;Samples;Min_cycle;Max_cycle;Signal;HPM_P1;HPM_P2
2022/06/17 00:01:25;;;;;;;6.80;6.30;;;;;;;;;;5036978;28;20064;-70
2022/06/17 00:03:51;;;;;;;6.85;6.38;;;;;;;;;;5026524;28;20095;-70
2022/06/17 00:06:19;;;;;;;6.47;6.03;;;;;;;;;;5028064;28;20029;-70
2022/06/17 00:08:49;;;;;;;6.97;6.30;;;;;;;;;;5029266;28;20113;-71
2022/06/17 00:11:23;;;;;;;6.85;6.38;;;;;;;;;;5028174;28;20025;-71
2022/06/17 00:13:49;;;;;;;7.90;6.22;;;;;;;;;;5028671;28;20080;-70
2022/06/17 00:16:17;;;;;;;7.40;6.80;;;;;;;;;;5028822;28;20057;-71
2022/06/17 00:18:43;;;;;;;7.00;6.57;;;;;;;;;;5027609;28;20067;-70
2022/06/17 00:21:21;;;;;;;6.75;6.25;;;;;;;;;;5029365;28;20053;-70
2022/06/17 00:23:46;;;;;;;7.28;6.75;;;;;;;;;;5028994;28;20722;-70
2022/06/17 00:26:12;;;;;;;6.93;6.43;;;;;;;;;;5032663;28;20033;-70
2022/06/17 00:28:38;;;;;;;9.57;6.60;;;;;;;;;;5030438;28;20065;-70
2022/06/17 00:31:03;;;;;;;7.20;6.70;;;;;;;;;;5028378;28;20034;-72
2022/06/17 00:33:29;;;;;;;7.88;6.90;;;;;;;;;;5043987;28;20034;-71
2022/06/17 00:35:56;;;;;;;7.15;6.40;;;;;;;;;;5027463;28;20038;-71
2022/06/17 00:38:33;;;;;;;7.10;6.55;;;;;;;;;;5026943;28;20561;-71
2022/06/17 00:41:11;;;;;;;7.50;6.80;;;;;;;;;;5028942;28;20060;-71
2022/06/17 00:43:40;;;;;;;7.10;6.60;;;;;;;;;;5032677;28;20215;-71
2022/06/17 00:46:22;;;;;;;7.32;6.72;;;;;;;;;;5026830;28;20038;-71
2022/06/17 00:49:00;;;;;;;7.57;7.03;;;;;;;;;;5028126;28;20030;-71
2022/06/17 00:51:30;;;;;;;7.72;7.00;;;;;;;;;;5044372;28;20033;-71
2022/06/17 00:54:10;;;;;;;6.70;6.30;;;;;;;;;;5029336;28;20064;-70
2022/06/17 00:56:36;;;;;;;7.32;6.60;;;;;;;;;;5040333;28;20219;-71
2022/06/17 00:59:13;;;;;;;7.07;6.47;;;;;;;;;;5026900;28;20115;-70
2022/06/17 01:01:58;;;;;;;7.40;6.70;;;;;;;;;;5030779;28;20033;-71
2022/06/17 01:04:32;;;;;;;7.70;6.63;;;;;;;;;;5024528;28;20041;-71
2022/06/17 01:07:20;;;;;;;7.50;7.00;;;;;;;;;;5025286;28;20065;-70
2022/06/17 01:10:01;;;;;;;7.70;6.95;;;;;;;;;;5026677;28;20405;-71
2022/06/17 01:12:42;;;;;;;7.38;6.55;;;;;;;;;;5040560;28;20059;-71
2022/06/17 01:15:08;;;;;;;7.27;6.70;;;;;;;;;;5026867;28;20029;-71
2022/06/17 01:17:38;;;;;;;7.30;6.70;;;;;;;;;;5042862;28;20167;-70
2022/06/17 01:20:07;;;;;;;7.68;6.90;;;;;;;;;;5041080;28;20041;-71
2022/06/17 01:22:40;;;;;;;7.33;6.73;;;;;;;;;;5026550;28;20040;-71
2022/06/17 01:25:16;;;;;;;10.73;6.95;;;;;;;;;;5046605;28;20400;-71
2022/06/17 01:27:45;;;;;;;7.65;7.05;;;;;;;;;;5048629;28;20041;-71
2022/06/17 01:30:26;;;;;;;7.35;6.80;;;;;;;;;;5033318;28;20389;-71
2022/06/17 01:32:58;;;;;;;7.55;6.55;;;;;;;;;;5049176;28;20473;-71
2022/06/17 01:35:28;;;;;;;7.50;6.90;;;;;;;;;;5033910;28;20056;-71
2022/06/17 01:37:55;;;;;;;7.35;6.75;;;;;;;;;;5033186;28;20090;-71
2022/06/17 01:40:24;;;;;;;;;;;;;;;;;;5034463;28;20032;-71
2022/06/17 01:42:50;;;;;;;7.13;6.43;;;;;;;;;;5034319;28;19932;-71
2022/06/17 01:45:16;;;;;;;8.32;6.85;;;;;;;;;;5032864;28;20404;-71
2022/06/17 01:47:44;;;;;;;7.75;6.93;;;;;;;;;;5049966;28;20168;-71
2022/06/17 01:50:19;;;;;;;8.27;7.45;;;;;;;;;;5049005;28;20037;-70
2022/06/17 01:52:55;;;;;;;7.20;6.70;;;;;;;;;;5050894;28;20123;-71
2022/06/17 01:55:31;;;;;;;8.05;6.95;;;;;;;;;;5014740;28;20052;-71
2022/06/17 01:58:20;;;;;;;7.35;6.85;;;;;;;;;;5035327;28;20037;-71
2022/06/17 02:00:46;;;;;;;7.05;6.47;;;;;;;;;;5050001;28;20088;-71
2022/06/17 02:03:20;;;;;;;7.72;7.10;;;;;;;;;;5029320;28;20040;-70
2022/06/17 02:05:51;;;;;;;7.85;7.20;;;;;;;;;;5035044;28;20036;-70
2022/06/17 02:08:18;;;;;;;8.20;7.40;;;;;;;;;;5033006;28;20030;-70
2022/06/17 02:10:46;;;;;;;8.20;7.50;;;;;;;;;;5048533;28;20038;-70
2022/06/17 02:13:14;;;;;;;10.82;7.80;;;;;;;;;;5049823;28;20040;-70
2022/06/17 02:16:02;;;;;;;7.95;7.25;;;;;;;;;;5023587;28;20041;-70
2022/06/17 02:18:39;;;;;;;8.15;7.40;;;;;;;;;;5028806;28;20057;-70
2022/06/17 02:21:13;;;;;;;8.43;7.75;;;;;;;;;;5031698;28;20033;-70
2022/06/17 02:23:39;;;;;;;7.70;7.10;;;;;;;;;;5047388;28;20057;-71
2022/06/17 02:26:08;;;;;;;8.20;7.55;;;;;;;;;;5032003;28;20029;-70
2022/06/17 02:28:35;;;;;;;8.23;7.63;;;;;;;;;;5032101;28;20029;-71
2022/06/17 02:31:02;;;;;;;7.85;7.25;;;;;;;;;;5035619;28;20029;-70
2022/06/17 02:33:29;;;;;;;8.55;7.50;;;;;;;;;;5032060;28;20053;-70
2022/06/17 02:36:09;;;;;;;7.57;6.88;;;;;;;;;;5028576;28;20132;-69
2022/06/17 02:38:36;;;;;;;7.35;6.75;;;;;;;;;;5028587;28;20037;-70
2022/06/17 02:41:06;;;;;;;7.93;7.18;;;;;;;;;;5032543;28;20029;-70
2022/06/17 02:43:43;;;;;;;7.75;7.05;;;;;;;;;;5048710;28;20056;-70
2022/06/17 02:46:21;;;;;;;7.55;7.05;;;;;;;;;;5029697;28;20033;-70
2022/06/17 02:48:52;;;;;;;9.10;7.68;;;;;;;;;;5048996;28;20080;-70
2022/06/17 02:51:18;;;;;;;8.45;7.85;;;;;;;;;;5050548;28;20037;-70
2022/06/17 02:53:45;;;;;;;8.40;7.55;;;;;;;;;;5029795;28;20030;-70
2022/06/17 02:56:18;;;;;;;8.32;7.72;;;;;;;;;;5028809;28;20162;-70
2022/06/17 02:58:55;;;;;;;7.95;7.25;;;;;;;;;;5044658;28;20061;-70
2022/06/17 03:01:26;;;;;;;8.73;8.00;;;;;;;;;;5028856;28;20029;-70
2022/06/17 03:04:23;;;;;;;8.82;7.97;;;;;;;;;;5029298;28;20033;-70
2022/06/17 03:06:50;;;;;;;8.40;7.80;;;;;;;;;;5032586;28;20064;-69
2022/06/17 03:09:25;;;;;;;8.73;7.97;;;;;;;;;;5025401;28;20115;-70
2022/06/17 03:12:19;;;;;;;9.35;8.02;;;;;;;;;;5046825;28;20034;-69
2022/06/17 03:14:56;;;;;;;9.73;8.20;;;;;;;;;;5024054;28;20049;-70
2022/06/17 03:17:24;;;;;;;8.75;8.02;;;;;;;;;;5048863;28;20048;-69
2022/06/17 03:19:57;;;;;;;8.43;7.80;;;;;;;;;;5026488;22;20177;-69
2022/06/17 03:22:25;;;;;;;9.93;8.30;;;;;;;;;;5026301;28;20042;-67
2022/06/17 03:25:14;;;;;;;9.13;8.23;;;;;;;;;;5022808;28;20030;-67
2022/06/17 03:27:46;;;;;;;8.82;8.15;;;;;;;;;;5020209;28;20122;-68
2022/06/17 03:30:19;;;;;;;9.27;8.57;;;;;;;;;;5009009;28;20038;-67
2022/06/17 03:32:48;;;;;;;9.15;8.43;;;;;;;;;;5012237;28;20446;-68
2022/06/17 03:35:24;;;;;;;9.38;8.57;;;;;;;;;;5002764;28;20052;-67
2022/06/17 03:37:56;;;;;;;9.32;8.52;;;;;;;;;;5014435;28;20288;-68
2022/06/17 03:40:36;;;;;;;8.75;7.95;;;;;;;;;;5011318;28;20099;-67
2022/06/17 03:43:09;;;;;;;8.27;7.68;;;;;;;;;;5018551;28;20042;-67
2022/06/17 03:45:46;;;;;;;8.55;7.85;;;;;;;;;;5010041;28;20038;-67
2022/06/17 03:48:19;;;;;;;8.80;8.20;;;;;;;;;;5015047;28;20064;-67
2022/06/17 03:50:47;;;;;;;8.55;7.85;;;;;;;;;;5006599;28;20033;-67
2022/06/17 03:53:35;;;;;;;9.05;7.85;;;;;;;;;;5014693;28;20568;-66
2022/06/17 03:56:10;;;;;;;8.15;7.55;;;;;;;;;;5010198;28;20034;-67
2022/06/17 03:58:40;;;;;;;8.88;8.18;;;;;;;;;;5019822;28;20117;-66
2022/06/17 04:01:15;;;;;;;8.55;7.80;;;;;;;;;;5029758;28;20056;-67
2022/06/17 04:03:49;;;;;;;8.38;7.82;;;;;;;;;;5007424;28;20041;-67
2022/06/17 04:06:19;;;;;;;8.55;7.85;;;;;;;;;;5023865;28;20061;-67
2022/06/17 04:08:56;;;;;;;9.27;8.52;;;;;;;;;;5028432;28;20289;-70
2022/06/17 04:11:26;;;;;;;9.15;8.32;;;;;;;;;;5015447;28;20036;-66
2022/06/17 04:13:55;;;;;;;8.20;7.60;;;;;;;;;;5013462;28;20036;-66
2022/06/17 04:16:41;;;;;;;8.95;8.15;;;;;;;;;;5000043;28;20038;-67
2022/06/17 04:19:19;;;;;;;9.57;8.55;;;;;;;;;;5006343;28;20045;-66
2022/06/17 04:21:59;;;;;;;8.68;8.07;;;;;;;;;;5007569;28;20155;-67
2022/06/17 04:24:28;;;;;;;8.82;8.02;;;;;;;;;;5022926;28;20060;-67
2022/06/17 04:27:03;;;;;;;8.63;7.82;;;;;;;;;;5005019;28;20485;-67
2022/06/17 04:29:37;;;;;;;8.90;8.00;;;;;;;;;;5007303;28;20026;-67
2022/06/17 04:32:09;;;;;;;8.52;7.88;;;;;;;;;;4999121;28;20493;-67
2022/06/17 04:34:35;;;;;;;8.82;8.10;;;;;;;;;;5005748;28;20461;-67
2022/06/17 04:37:04;;;;;;;10.48;8.38;;;;;;;;;;5012268;28;20097;-67
2022/06/17 04:39:57;;;;;;;8.68;8.07;;;;;;;;;;5013091;28;20034;-66
2022/06/17 04:42:47;;;;;;;9.00;8.20;;;;;;;;;;5002346;28;20048;-66
2022/06/17 04:45:20;;;;;;;9.23;8.48;;;;;;;;;;5030993;28;20030;-66
2022/06/17 04:47:47;;;;;;;9.90;9.00;;;;;;;;;;5003005;28;20037;-67
2022/06/17 04:50:22;;;;;;;9.52;8.82;;;;;;;;;;5024277;28;20029;-66
2022/06/17 04:52:51;;;;;;;9.00;8.10;;;;;;;;;;5026665;28;20460;-66
2022/06/17 04:55:35;;;;;;;9.23;8.40;;;;;;;;;;5008949;28;20100;-67
2022/06/17 04:58:24;;;;;;;8.75;8.05;;;;;;;;;;5011500;28;20119;-66
2022/06/17 05:00:59;;;;;;;9.70;8.80;;;;;;;;;;5026524;28;20034;-66
2022/06/17 05:03:45;;;;;;;9.45;8.55;;;;;;;;;;5012490;28;20046;-66
2022/06/17 05:06:30;;;;;;;9.23;8.32;;;;;;;;;;5009486;28;20087;-67
2022/06/17 05:09:03;;;;;;;9.23;8.30;;;;;;;;;;5008160;28;20120;-67
2022/06/17 05:11:34;;;;;;;8.88;8.15;;;;;;;;;;5025355;28;20029;-66
2022/06/17 05:14:08;;;;;;;9.02;8.20;;;;;;;;;;5010024;28;20034;-66
2022/06/17 05:16:34;;;;;;;9.13;8.27;;;;;;;;;;5022088;28;20030;-66
2022/06/17 05:19:00;;;;;;;8.88;8.07;;;;;;;;;;5022504;28;20344;-67
2022/06/17 05:21:26;;;;;;;8.95;8.23;;;;;;;;;;5005180;28;20036;-65
2022/06/17 05:24:00;;;;;;;9.18;8.25;;;;;;;;;;5005837;28;20128;-66
2022/06/17 05:26:28;;;;;;;9.20;8.02;;;;;;;;;;5003138;28;20087;-66
2022/06/17 05:28:55;;;;;;;9.30;8.05;;;;;;;;;;5006987;28;20404;-66
2022/06/17 05:31:25;;;;;;;8.75;8.07;;;;;;;;;;5006435;28;20037;-67
2022/06/17 05:33:56;;;;;;;8.73;7.95;;;;;;;;;;5016749;28;20045;-67
2022/06/17 05:36:22;;;;;;;8.15;7.55;;;;;;;;;;5022055;28;20038;-66
2022/06/17 05:38:49;;;;;;;8.88;8.07;;;;;;;;;;5003973;28;20096;-66
2022/06/17 05:41:17;;;;;;;8.60;7.82;;;;;;;;;;5006219;28;20041;-66
2022/06/17 05:43:43;;;;;;;8.70;7.90;;;;;;;;;;5002127;28;20034;-65
2022/06/17 05:46:18;;;;;;;8.98;8.25;;;;;;;;;;5003349;28;20052;-66
2022/06/17 05:49:02;;;;;;;8.30;7.57;;;;;;;;;;5011423;28;20504;-66
2022/06/17 05:51:56;;;;;;;9.00;8.30;;;;;;;;;;5009859;28;20038;-66
2022/06/17 05:54:27;;;;;;;8.70;8.00;;;;;;;;;;5019230;28;21063;-65
2022/06/17 05:57:04;;;;;;;9.27;8.15;;;;;;;;;;5009604;28;20086;-66
2022/06/17 05:59:30;;;;;;;11.88;8.00;;;;;;;;;;5009154;28;20037;-66
2022/06/17 06:01:57;;;;;;;9.00;8.13;;;;;;;;;;5007224;28;20038;-65
2022/06/17 06:04:39;;;;;;;8.70;7.95;;;;;;;;;;5008387;28;20091;-66
2022/06/17 06:07:05;;;;;;;8.70;7.97;;;;;;;;;;5016296;28;20116;-67
2022/06/17 06:09:31;;;;;;;8.40;7.60;;;;;;;;;;5003075;28;20041;-67
2022/06/17 06:11:56;;;;;;;9.48;7.53;;;;;;;;;;5004490;28;20030;-64
2022/06/17 06:14:23;;;;;;;8.95;7.43;;;;;;;;;;5007416;28;20493;-66
2022/06/17 06:16:48;;;;;;;7.75;7.10;;;;;;;;;;5011304;28;20038;-67
2022/06/17 06:19:14;;;;;;;7.85;7.07;;;;;;;;;;5017127;28;20509;-66
2022/06/17 06:21:39;;;;;;;7.65;7.05;;;;;;;;;;5012335;28;20481;-67
2022/06/17 06:24:05;;;;;;;10.25;7.72;;;;;;;;;;5007467;28;20092;-66
2022/06/17 06:26:33;;;;;;;7.70;7.13;;;;;;;;;;5011094;28;20114;-66
2022/06/17 06:29:21;;;;;;;9.73;8.95;;;;;;;;;;5005966;28;20042;-64
2022/06/17 06:31:48;;;;;;;7.30;6.80;;;;;;;;;;5016325;28;20037;-66
2022/06/17 06:34:32;;;;;;;7.72;7.05;;;;;;;;;;5010551;28;20092;-66
2022/06/17 06:37:00;;;;;;;7.93;7.18;;;;;;;;;;5014324;28;20042;-67
2022/06/17 06:39:27;;;;;;;7.75;7.07;;;;;;;;;;5007945;28;20040;-65
2022/06/17 06:41:56;;;;;;;7.75;6.95;;;;;;;;;;5022498;28;20030;-66
2022/06/17 06:44:22;;;;;;;9.57;7.22;;;;;;;;;;5004677;28;20045;-66
2022/06/17 06:46:51;;;;;;;9.48;7.00;;;;;;;;;;5005741;28;20041;-66
2022/06/17 06:49:49;;;;;;;7.65;6.95;;;;;;;;;;4993634;28;20052;-65
2022/06/17 06:52:16;;;;;;;7.25;6.60;;;;;;;;;;5007129;28;20038;-66
2022/06/17 06:54:42;;;;;;;8.63;7.03;;;;;;;;;;5024546;28;20558;-65
2022/06/17 06:57:10;;;;;;;7.30;6.70;;;;;;;;;;5023688;28;20041;-65
2022/06/17 06:59:39;;;;;;;7.70;7.00;;;;;;;;;;5010271;28;20582;-67
2022/06/17 07:02:05;;;;;;;7.18;6.57;;;;;;;;;;5013625;28;20037;-66
2022/06/17 07:04:32;;;;;;;7.47;6.78;;;;;;;;;;5023946;28;20038;-67
2022/06/17 07:06:57;;;;;;;7.18;6.47;;;;;;;;;;5007792;28;20504;-67
2022/06/17 07:09:23;;;;;;;6.55;5.95;;;;;;;;;;5011543;28;20389;-66
2022/06/17 07:11:48;;;;;;;7.13;6.22;;;;;;;;;;5007370;28;20041;-66
2022/06/17 07:14:14;;;;;;;7.07;6.15;;;;;;;;;;5006043;28;20176;-66
2022/06/17 07:16:40;;;;;;;8.85;6.47;;;;;;;;;;5010242;28;20400;-67
2022/06/17 07:19:07;;;;;;;7.22;6.57;;;;;;;;;;5008250;28;20087;-66
2022/06/17 07:21:33;;;;;;;7.60;6.40;;;;;;;;;;5008872;28;20054;-64
2022/06/17 07:23:59;;;;;;;6.80;6.30;;;;;;;;;;5006925;28;20038;-66
2022/06/17 07:26:25;;;;;;;6.38;5.88;;;;;;;;;;5007134;28;20040;-66
2022/06/17 07:28:52;;;;;;;6.72;6.22;;;;;;;;;;5014634;28;20040;-67
2022/06/17 07:31:18;;;;;;;6.43;5.97;;;;;;;;;;5006710;28;20443;-68
2022/06/17 07:33:45;;;;;;;6.88;6.18;;;;;;;;;;5009856;28;20507;-68
2022/06/17 07:39:53;;;;;;;6.93;6.25;;;;;;;;;;5001847;28;20509;-68
2022/06/17 07:41:43;;;;;;;6.25;5.75;;;;;;;;;;5003826;28;20299;-68
2022/06/17 07:44:08;;;;;;;6.22;5.50;;;;;;;;;;5006732;28;20034;-68
2022/06/17 07:46:34;;;;;;;9.02;5.80;;;;;;;;;;5004520;28;20042;-67
2022/06/17 07:49:01;;;;;;;6.28;5.40;;;;;;;;;;5006586;28;20504;-65
2022/06/17 07:51:27;;;;;;;6.93;5.97;;;;;;;;;;5001400;28;20037;-65
2022/06/17 07:53:52;;;;;;;5.80;5.40;;;;;;;;;;5005995;28;20037;-65
2022/06/17 07:56:20;;;;;;;6.75;6.07;;;;;;;;;;5005781;28;20025;-65
2022/06/17 07:58:46;;;;;;;6.18;5.57;;;;;;;;;;5007368;28;20104;-66
2022/06/17 08:01:12;;;;;;;6.82;5.28;;;;;;;;;;5002533;28;20461;-64
2022/06/17 08:03:38;;;;;;;5.80;5.40;;;;;;;;;;5005389;28;20073;-65
2022/06/17 08:06:04;;;;;;;10.65;6.05;;;;;;;;;;5014350;28;20034;-68
2022/06/17 08:08:30;;;;;;;6.22;5.80;;;;;;;;;;5006827;28;20041;-66
2022/06/17 08:10:58;;;;;;;6.00;5.50;;;;;;;;;;4998029;28;20046;-65
2022/06/17 08:13:25;;;;;;;7.28;5.90;;;;;;;;;;5006636;28;20128;-66
2022/06/17 08:15:54;;;;;;;5.90;5.40;;;;;;;;;;5007958;28;20572;-64
2022/06/17 08:18:21;;;;;;;6.70;6.20;;;;;;;;;;5007895;28;20040;-66
2022/06/17 08:20:46;;;;;;;6.22;5.68;;;;;;;;;;5001829;28;20441;-64
2022/06/17 08:23:12;;;;;;;6.50;5.90;;;;;;;;;;5011244;28;20048;-66
2022/06/17 08:25:38;;;;;;;6.07;5.50;;;;;;;;;;5007206;28;20060;-68
2022/06/17 08:28:09;;;;;;;6.28;5.68;;;;;;;;;;5004006;28;20042;-68
2022/06/17 08:30:39;;;;;;;6.15;5.65;;;;;;;;;;5004072;28;20042;-68
2022/06/17 08:33:05;;;;;;;7.07;5.68;;;;;;;;;;5015054;28;20096;-65
2022/06/17 08:35:34;;;;;;;6.10;5.63;;;;;;;;;;5005424;28;20037;-64
2022/06/17 08:38:05;;;;;;;6.60;5.85;;;;;;;;;;4996790;28;20479;-65
2022/06/17 08:40:53;;;;;;;6.38;5.47;;;;;;;;;;5009311;28;20420;-65
2022/06/17 08:44:03;;;;;;;6.38;5.50;;;;;;;;;;5005218;28;20076;-66
2022/06/17 08:46:59;;;;;;;5.78;5.38;;;;;;;;;;4990249;28;20052;-68
2022/06/17 08:50:15;;;;;;;6.35;5.72;;;;;;;;;;5006350;28;20153;-65
2022/06/17 08:52:43;;;;;;;6.47;5.30;;;;;;;;;;5006838;28;20127;-66
2022/06/17 08:55:09;;;;;;;;;;;;;;;;;;5009280;28;20046;-67
2022/06/17 08:58:05;;;;;;;5.50;5.00;;;;;;;;;;5003652;28;20016;-64
2022/06/17 09:00:53;;;;;;;5.93;5.18;;;;;;;;;;5010031;28;20042;-66
2022/06/17 09:03:29;;;;;;;8.15;5.07;;;;;;;;;;5000536;28;20121;-65
2022/06/17 09:06:12;;;;;;;5.93;5.53;;;;;;;;;;5004480;28;20046;-68
2022/06/17 09:08:59;;;;;;;5.82;5.30;;;;;;;;;;5014546;28;20075;-69
2022/06/17 09:11:33;;;;;;;5.50;5.10;;;;;;;;;;5008034;28;20037;-68
2022/06/17 09:14:36;;;;;;;5.57;5.07;;;;;;;;;;5000406;28;20561;-66
2022/06/17 09:17:24;;;;;;;5.55;5.15;;;;;;;;;;5008063;28;20033;-66
2022/06/17 09:19:55;;;;;;;5.93;5.43;;;;;;;;;;5002763;28;20377;-66
2022/06/17 09:22:26;;;;;;;5.95;5.38;;;;;;;;;;5001778;28;20406;-65
2022/06/17 09:24:54;;;;;;;5.68;5.18;;;;;;;;;;5005694;28;20489;-69
2022/06/17 09:27:27;;;;;;;6.40;5.57;;;;;;;;;;5004283;28;20095;-69
2022/06/17 09:30:20;;;;;;;6.32;5.80;;;;;;;;;;5003543;28;20038;-69
2022/06/17 09:33:08;;;;;;;5.68;5.28;;;;;;;;;;5004506;28;20074;-68
2022/06/17 09:35:36;;;;;;;5.72;5.20;;;;;;;;;;5006293;28;20117;-68
2022/06/17 09:38:31;;;;;;;5.53;5.10;;;;;;;;;;4999628;28;20061;-68
2022/06/17 09:41:05;;;;;;;6.20;5.30;;;;;;;;;;5011922;28;20385;-68
2022/06/17 09:43:50;;;;;;;8.77;5.35;;;;;;;;;;5008568;28;20045;-69
2022/06/17 09:46:27;;;;;;;12.85;5.20;;;;;;;;;;5006187;28;20524;-68
2022/06/17 09:49:07;;;;;;;4.97;4.57;;;;;;;;;;5006906;28;20044;-67
2022/06/17 09:51:55;;;;;;;5.75;5.10;;;;;;;;;;5019755;28;20044;-67
2022/06/17 09:54:40;;;;;;;;;;;;;;;;;;5011680;28;20505;-67
2022/06/17 09:57:10;;;;;;;6.13;5.35;;;;;;;;;;5002421;28;19931;-69
2022/06/17 09:59:53;;;;;;;6.30;5.20;;;;;;;;;;5011615;28;20050;-68
2022/06/17 10:02:31;;;;;;;5.35;4.70;;;;;;;;;;5007456;28;20413;-68
2022/06/17 10:04:59;;;;;;;4.80;4.43;;;;;;;;;;5008043;28;20069;-68
2022/06/17 10:07:40;;;;;;;5.07;4.57;;;;;;;;;;5004383;28;20038;-66
2022/06/17 10:10:12;;;;;;;5.47;5.05;;;;;;;;;;5013215;28;20285;-66
2022/06/17 10:12:55;;;;;;;7.20;5.47;;;;;;;;;;5007217;28;20038;-68
2022/06/17 10:15:27;;;;;;;5.63;4.80;;;;;;;;;;5009991;28;20044;-68
2022/06/17 10:21:19;;;;;;;5.93;4.65;;;;;;;;;;5008940;28;20034;-69
2022/06/17 10:24:06;;;;;;;5.13;4.65;;;;;;;;;;5013998;28;20065;-69
2022/06/17 10:26:54;;;;;;;5.35;4.88;;;;;;;;;;5006436;28;20033;-69
2022/06/17 10:29:31;;;;;;;6.10;5.60;;;;;;;;;;5006997;28;20034;-68
2022/06/17 10:31:58;;;;;;;5.30;4.90;;;;;;;;;;5012948;28;20493;-68
2022/06/17 10:34:31;;;;;;;5.30;4.85;;;;;;;;;;5007443;28;20501;-68
2022/06/17 10:37:01;;;;;;;6.85;4.72;;;;;;;;;;5007008;28;20131;-68
2022/06/17 10:39:30;;;;;;;5.45;4.95;;;;;;;;;;5008025;28;20037;-69
2022/06/17 10:41:57;;;;;;;6.25;4.93;;;;;;;;;;5009786;28;20038;-66
2022/06/17 10:44:26;;;;;;;5.78;5.38;;;;;;;;;;5009676;28;20034;-65
2022/06/17 10:46:56;;;;;;;;;;;;;;;;;;5009578;28;20030;-65
2022/06/17 10:49:37;;;;;;;5.57;5.15;;;;;;;;;;5010147;28;19921;-65
2022/06/17 10:52:18;;;;;;;5.90;5.40;;;;;;;;;;5005063;28;20152;-67
2022/06/17 10:54:46;;;;;;;6.88;5.20;;;;;;;;;;5012258;28;20124;-66
2022/06/17 10:57:23;;;;;;;6.20;5.72;;;;;;;;;;5014704;28;20037;-67
2022/06/17 10:59:49;;;;;;;5.38;4.97;;;;;;;;;;5004448;28;20121;-68
2022/06/17 11:02:21;;;;;;;5.75;5.30;;;;;;;;;;5002925;28;20488;-68
2022/06/17 11:04:52;;;;;;;6.28;5.70;;;;;;;;;;5010502;28;20143;-67
2022/06/17 11:07:30;;;;;;;6.10;5.60;;;;;;;;;;5013701;28;20036;-68
2022/06/17 11:10:00;;;;;;;5.60;5.20;;;;;;;;;;5009177;28;20096;-68
2022/06/17 11:12:57;;;;;;;6.50;5.90;;;;;;;;;;5007460;28;20073;-68
2022/06/17 11:15:31;;;;;;;7.38;6.00;;;;;;;;;;5002058;28;20472;-66
2022/06/17 11:18:06;;;;;;;6.45;5.97;;;;;;;;;;5011291;28;20026;-67
2022/06/17 11:20:34;;;;;;;6.40;5.93;;;;;;;;;;5006764;28;20046;-67
2022/06/17 11:23:17;;;;;;;6.60;6.10;;;;;;;;;;5006102;28;20030;-68
2022/06/17 11:25:43;;;;;;;6.05;5.65;;;;;;;;;;5007138;28;20030;-68
2022/06/17 11:28:11;;;;;;;6.53;6.03;;;;;;;;;;5007794;28;20041;-67
2022/06/17 11:30:59;;;;;;;6.20;5.80;;;;;;;;;;5004435;28;20052;-68
2022/06/17 11:33:38;;;;;;;6.95;6.35;;;;;;;;;;5012751;28;20317;-66
2022/06/17 11:36:14;;;;;;;6.88;6.38;;;;;;;;;;5007476;28;20478;-66
2022/06/17 11:38:40;;;;;;;6.90;6.28;;;;;;;;;;5014860;28;20053;-66
2022/06/17 11:41:06;;;;;;;6.88;6.28;;;;;;;;;;5015293;28;20112;-66
2022/06/17 11:43:35;;;;;;;6.32;5.93;;;;;;;;;;5010958;28;20558;-67
2022/06/17 11:46:15;;;;;;;6.13;5.72;;;;;;;;;;5012068;28;20052;-67
2022/06/17 11:48:46;;;;;;;6.50;6.00;;;;;;;;;;5013742;28;20065;-67
2022/06/17 11:51:16;;;;;;;6.25;5.75;;;;;;;;;;5004513;28;20077;-67
2022/06/17 11:53:48;;;;;;;7.05;6.30;;;;;;;;;;5001022;28;20092;-67
2022/06/17 11:56:34;;;;;;;5.82;5.40;;;;;;;;;;4998961;28;20034;-68
2022/06/17 11:59:07;;;;;;;7.50;5.60;;;;;;;;;;5008558;28;20627;-68
2022/06/17 12:01:34;;;;;;;6.32;5.93;;;;;;;;;;5002647;28;20116;-68
2022/06/17 12:03:59;;;;;;;6.78;6.22;;;;;;;;;;5005202;28;20038;-68
2022/06/17 12:06:29;;;;;;;6.13;5.63;;;;;;;;;;5010231;28;20172;-67
2022/06/17 12:09:08;;;;;;;6.18;5.68;;;;;;;;;;5002720;28;20393;-66
2022/06/17 12:11:51;;;;;;;6.15;5.75;;;;;;;;;;5005871;28;20026;-67
2022/06/17 12:14:28;;;;;;;6.50;6.00;;;;;;;;;;4995600;28;20150;-67
2022/06/17 12:16:55;;;;;;;6.15;5.75;;;;;;;;;;5014515;28;20496;-68
2022/06/17 12:19:22;;;;;;;5.95;5.55;;;;;;;;;;5005333;28;20478;-67
2022/06/17 12:22:00;;;;;;;6.30;5.90;;;;;;;;;;5006048;28;20264;-68
2022/06/17 12:24:45;;;;;;;6.18;5.78;;;;;;;;;;5010068;28;20102;-67
2022/06/17 12:27:50;;;;;;;6.18;5.78;;;;;;;;;;5006615;28;20072;-67
2022/06/17 12:30:28;;;;;;;6.50;5.97;;;;;;;;;;5003736;28;20077;-67
2022/06/17 12:33:35;;;;;;;6.22;5.72;;;;;;;;;;5001440;28;20069;-67
2022/06/17 12:36:37;;;;;;;6.43;5.93;;;;;;;;;;4963796;28;20050;-68
2022/06/17 12:39:16;;;;;;;5.90;5.40;;;;;;;;;;4888103;29;20132;-68
2022/06/17 12:42:05;;;;;;;5.60;5.20;;;;;;;;;;4888251;29;20044;-67
2022/06/17 12:44:39;;;;;;;6.43;5.93;;;;;;;;;;4890148;29;20075;-68
2022/06/17 12:47:18;;;;;;;5.78;5.38;;;;;;;;;;4892768;29;20198;-68
2022/06/17 12:55:41;;;;;;;5.85;5.43;;;;;;;;;;4892817;29;20054;-67
2022/06/17 12:58:22;;;;;;;6.57;5.97;;;;;;;;;;4886958;29;20048;-67
2022/06/17 13:00:51;;;;;;;6.55;6.03;;;;;;;;;;4886320;29;20052;-67
2022/06/17 13:03:23;;;;;;;6.50;6.10;;;;;;;;;;4889316;29;20063;-68
2022/06/17 13:05:49;;;;;;;6.32;5.80;;;;;;;;;;4899510;29;20070;-67
2022/06/17 13:08:41;;;;;;;6.00;5.60;;;;;;;;;;4942330;29;20379;-68
2022/06/17 13:11:25;;;;;;;5.97;5.63;;;;;;;;;;4941757;28;20043;-67
2022/06/17 13:14:15;;;;;;;5.82;5.53;;;;;;;;;;4933727;29;20083;-67
2022/06/17 13:16:55;;;;;;;6.07;5.78;;;;;;;;;;4998783;28;20425;-68
2022/06/17 13:19:21;;;;;;;6.07;5.55;;;;;;;;;;5011182;28;20124;-68
2022/06/17 13:21:53;;;;;;;5.72;5.32;;;;;;;;;;5012853;28;20494;-66
2022/06/17 13:24:34;;;;;;;6.05;5.53;;;;;;;;;;5015892;28;20489;-67
2022/06/17 13:27:05;;;;;;;6.22;5.60;;;;;;;;;;5002835;28;20040;-68
2022/06/17 13:29:43;;;;;;;6.07;5.63;;;;;;;;;;5013750;28;20038;-67
2022/06/17 13:32:12;;;;;;;6.40;5.80;;;;;;;;;;5014710;28;20476;-67
2022/06/17 13:35:05;;;;;;;5.32;5.03;;;;;;;;;;5009324;28;20041;-67
2022/06/17 13:37:45;;;;;;;5.45;5.10;;;;;;;;;;5012660;28;20033;-67
2022/06/17 13:40:21;;;;;;;5.55;5.18;;;;;;;;;;5006893;28;20046;-67
2022/06/17 13:42:48;;;;;;;6.38;5.88;;;;;;;;;;5013955;28;20045;-67
2022/06/17 13:45:48;;;;;;;5.60;5.20;;;;;;;;;;5002538;28;20448;-66
2022/06/17 13:48:35;;;;;;;5.60;5.25;;;;;;;;;;5006096;28;20290;-67
2022/06/17 13:51:45;;;;;;;5.47;5.17;;;;;;;;;;5031744;28;20069;-67
2022/06/17 13:54:20;;;;;;;6.00;5.50;;;;;;;;;;4983113;28;20177;-66
2022/06/17 13:57:27;;;;;;;5.70;5.30;;;;;;;;;;5003016;28;20139;-66
2022/06/17 13:59:57;;;;;;;6.05;5.55;;;;;;;;;;4943548;28;20051;-65
2022/06/17 14:02:50;;;;;;;6.10;5.70;;;;;;;;;;4942421;28;20174;-66
2022/06/17 14:06:03;;;;;;;6.30;5.80;;;;;;;;;;4944007;28;20126;-66
2022/06/17 14:08:45;;;;;;;5.75;5.40;;;;;;;;;;4944553;28;20410;-66
2022/06/17 14:11:54;;;;;;;5.90;5.50;;;;;;;;;;4941258;29;20540;-65
2022/06/17 14:14:31;;;;;;;5.90;5.50;;;;;;;;;;4935693;28;20137;-65
2022/06/17 14:17:08;;;;;;;4.90;4.50;;;;;;;;;;4947781;28;20110;-68
2022/06/17 14:19:41;;;;;;;5.95;5.55;;;;;;;;;;4941391;28;20047;-67
2022/06/17 14:22:16;;;;;;;6.22;5.82;;;;;;;;;;4910533;29;20047;-65
2022/06/17 14:24:44;;;;;;;5.95;5.45;;;;;;;;;;4948327;28;20451;-66
2022/06/17 14:27:12;;;;;;;5.78;5.38;;;;;;;;;;4943772;28;20043;-66
2022/06/17 14:29:38;;;;;;;6.47;6.00;;;;;;;;;;4940914;29;20047;-66
2022/06/17 14:32:38;;;;;;;5.65;5.32;;;;;;;;;;4939801;28;20182;-66
2022/06/17 14:35:05;;;;;;;5.93;5.53;;;;;;;;;;4972377;28;20507;-66
2022/06/17 14:37:37;;;;;;;6.07;5.72;;;;;;;;;;5011473;28;20033;-65
2022/06/17 14:40:05;;;;;;;5.80;5.40;;;;;;;;;;5012921;28;20041;-67
2022/06/17 14:42:45;;;;;;;5.90;5.50;;;;;;;;;;5014826;28;20908;-66
2022/06/17 14:45:33;;;;;;;5.35;5.00;;;;;;;;;;5018267;28;20041;-66
2022/06/17 14:48:04;;;;;;;6.10;5.60;;;;;;;;;;5012556;28;20042;-67
2022/06/17 14:50:38;;;;;;;5.82;5.43;;;;;;;;;;5010133;28;20048;-66
2022/06/17 14:53:08;;;;;;;5.65;5.32;;;;;;;;;;5011351;28;20054;-65
2022/06/17 14:55:58;;;;;;;5.20;4.90;;;;;;;;;;4999473;28;20037;-65
2022/06/17 14:58:40;;;;;;;5.53;5.22;;;;;;;;;;5008569;28;20505;-67
2022/06/17 15:01:26;;;;;;;6.28;5.78;;;;;;;;;;5011823;28;20057;-66
2022/06/17 15:03:58;;;;;;;6.20;5.80;;;;;;;;;;5006389;28;20034;-66
2022/06/17 15:06:27;;;;;;;6.15;5.75;;;;;;;;;;5004196;28;20040;-66
2022/06/17 15:08:53;;;;;;;5.97;5.57;;;;;;;;;;5010011;28;20046;-65
2022/06/17 15:11:18;;;;;;;6.25;5.85;;;;;;;;;;5015411;28;20492;-66
2022/06/17 15:14:09;;;;;;;6.25;5.60;;;;;;;;;;5009484;28;20037;-66
2022/06/17 15:17:07;;;;;;;6.10;5.80;;;;;;;;;;5007792;28;20083;-66
2022/06/17 15:19:38;;;;;;;5.80;5.50;;;;;;;;;;5031433;22;20053;-68
2022/06/17 15:22:21;;;;;;;6.50;6.10;;;;;;;;;;5048990;28;20112;-67
2022/06/17 15:24:53;;;;;;;5.88;5.57;;;;;;;;;;5050497;28;20041;-67
2022/06/17 15:27:30;;;;;;;5.93;5.53;;;;;;;;;;5047944;28;20040;-67
2022/06/17 15:30:00;;;;;;;6.45;5.85;;;;;;;;;;5049882;28;20542;-67
2022/06/17 15:32:28;;;;;;;5.75;5.45;;;;;;;;;;5049974;28;20042;-67
2022/06/17 15:34:54;;;;;;;6.20;5.80;;;;;;;;;;5043012;28;20036;-67
2022/06/17 15:37:31;;;;;;;5.80;5.50;;;;;;;;;;5042901;28;20090;-67
2022/06/17 15:40:21;;;;;;;5.90;5.40;;;;;;;;;;5046233;28;20045;-67